sensor_id;sensor_type;location;lat;lon;timestamp;temperature;humidity
64143;DHT22;50437;51.970;5.904;2022-12-29T00:02:07;10.60;99.90
64143;DHT22;50437;51.970;5.904;2022-12-29T00:04:33;10.70;99.90
64143;DHT22;50437;51.970;5.904;2022-12-29T00:06:59;10.70;99.90
64143;DHT22;50437;51.970;5.904;2022-12-29T00:09:25;10.60;99.90
64143;DHT22;50437;51.970;5.904;2022-12-29T00:11:51;10.60;99.90
64143;DHT22;50437;51.970;5.904;2022-12-29T00:14:17;10.60;99.90
64143;DHT22;50437;51.970;5.904;2022-12-29T00:17:02;10.60;99.90
64143;DHT22;50437;51.970;5.904;2022-12-29T00:19:28;10.60;99.90
64143;DHT22;50437;51.970;5.904;2022-12-29T00:22:13;10.60;99.90
64143;DHT22;50437;51.970;5.904;2022-12-29T00:24:58;10.60;99.90
64143;DHT22;50437;51.970;5.904;2022-12-29T00:27:43;10.60;99.90
64143;DHT22;50437;51.970;5.904;2022-12-29T00:30:28;10.60;99.90
64143;DHT22;50437;51.970;5.904;2022-12-29T00:33:13;10.60;99.90
64143;DHT22;50437;51.970;5.904;2022-12-29T00:36:00;10.70;99.90
64143;DHT22;50437;51.970;5.904;2022-12-29T00:38:29;10.60;99.90
64143;DHT22;50437;51.970;5.904;2022-12-29T00:41:15;10.60;99.90
64143;DHT22;50437;51.970;5.904;2022-12-29T00:44:01;10.70;99.90
64143;DHT22;50437;51.970;5.904;2022-12-29T00:46:36;10.70;99.90
64143;DHT22;50437;51.970;5.904;2022-12-29T00:49:02;10.60;99.90
64143;DHT22;50437;51.970;5.904;2022-12-29T00:51:47;10.70;99.90
64143;DHT22;50437;51.970;5.904;2022-12-29T00:54:13;10.70;99.90
64143;DHT22;50437;51.970;5.904;2022-12-29T00:56:40;10.70;99.90
64143;DHT22;50437;51.970;5.904;2022-12-29T00:59:07;10.70;99.90
64143;DHT22;50437;51.970;5.904;2022-12-29T01:01:33;10.70;99.90
64143;DHT22;50437;51.970;5.904;2022-12-29T01:04:00;10.70;99.90
64143;DHT22;50437;51.970;5.904;2022-12-29T01:06:26;10.70;99.90
64143;DHT22;50437;51.970;5.904;2022-12-29T01:08:51;10.70;99.90
64143;DHT22;50437;51.970;5.904;2022-12-29T01:11:38;10.70;99.90
64143;DHT22;50437;51.970;5.904;2022-12-29T01:14:05;10.70;99.90
64143;DHT22;50437;51.970;5.904;2022-12-29T01:16:31;10.70;99.90
64143;DHT22;50437;51.970;5.904;2022-12-29T01:18:57;10.70;99.90
64143;DHT22;50437;51.970;5.904;2022-12-29T01:21:23;10.70;99.90
64143;DHT22;50437;51.970;5.904;2022-12-29T01:23:50;10.70;99.90
64143;DHT22;50437;51.970;5.904;2022-12-29T01:26:16;10.70;99.90
64143;DHT22;50437;51.970;5.904;2022-12-29T01:28:43;10.70;99.90
64143;DHT22;50437;51.970;5.904;2022-12-29T01:31:09;10.70;99.90
64143;DHT22;50437;51.970;5.904;2022-12-29T01:33:36;10.70;99.90
64143;DHT22;50437;51.970;5.904;2022-12-29T01:36:03;10.60;99.90
64143;DHT22;50437;51.970;5.904;2022-12-29T01:38:29;10.60;99.90
64143;DHT22;50437;51.970;5.904;2022-12-29T01:40:55;10.60;99.90
64143;DHT22;50437;51.970;5.904;2022-12-29T01:43:21;10.60;99.90
64143;DHT22;50437;51.970;5.904;2022-12-29T01:45:48;10.50;99.90
64143;DHT22;50437;51.970;5.904;2022-12-29T01:48:16;10.50;99.90
64143;DHT22;50437;51.970;5.904;2022-12-29T01:50:50;10.50;99.90
64143;DHT22;50437;51.970;5.904;2022-12-29T01:53:20;10.50;99.90
64143;DHT22;50437;51.970;5.904;2022-12-29T01:55:52;10.50;99.90
64143;DHT22;50437;51.970;5.904;2022-12-29T01:58:20;10.50;99.90
64143;DHT22;50437;51.970;5.904;2022-12-29T02:00:47;10.60;99.90
64143;DHT22;50437;51.970;5.904;2022-12-29T02:03:13;10.50;99.90
64143;DHT22;50437;51.970;5.904;2022-12-29T02:05:42;10.50;99.90
64143;DHT22;50437;51.970;5.904;2022-12-29T02:08:12;10.50;99.90
64143;DHT22;50437;51.970;5.904;2022-12-29T02:10:38;10.60;99.90
64143;DHT22;50437;51.970;5.904;2022-12-29T02:13:06;10.60;99.90
64143;DHT22;50437;51.970;5.904;2022-12-29T02:15:41;10.60;99.90
64143;DHT22;50437;51.970;5.904;2022-12-29T02:18:27;10.70;99.90
64143;DHT22;50437;51.970;5.904;2022-12-29T02:21:06;10.70;99.90
64143;DHT22;50437;51.970;5.904;2022-12-29T02:23:42;10.70;99.90
64143;DHT22;50437;51.970;5.904;2022-12-29T02:31:42;10.80;99.90
64143;DHT22;50437;51.970;5.904;2022-12-29T02:37:00;10.80;99.90
64143;DHT22;50437;51.970;5.904;2022-12-29T02:42:14;10.80;99.90
64143;DHT22;50437;51.970;5.904;2022-12-29T02:50:08;10.90;99.90
64143;DHT22;50437;51.970;5.904;2022-12-29T02:52:39;11.00;99.90
64143;DHT22;50437;51.970;5.904;2022-12-29T02:55:06;11.00;99.90
64143;DHT22;50437;51.970;5.904;2022-12-29T02:57:33;11.00;99.90
64143;DHT22;50437;51.970;5.904;2022-12-29T03:02:33;11.10;99.90
64143;DHT22;50437;51.970;5.904;2022-12-29T03:07:46;11.10;99.90
64143;DHT22;50437;51.970;5.904;2022-12-29T03:10:30;11.10;99.90
64143;DHT22;50437;51.970;5.904;2022-12-29T03:21:00;11.20;99.90
64143;DHT22;50437;51.970;5.904;2022-12-29T03:23:28;11.20;99.90
64143;DHT22;50437;51.970;5.904;2022-12-29T03:25:58;11.20;99.90
64143;DHT22;50437;51.970;5.904;2022-12-29T03:28:32;11.20;99.90
64143;DHT22;50437;51.970;5.904;2022-12-29T03:31:00;11.20;99.90
64143;DHT22;50437;51.970;5.904;2022-12-29T03:33:32;11.30;99.90
64143;DHT22;50437;51.970;5.904;2022-12-29T03:36:02;11.30;99.90
64143;DHT22;50437;51.970;5.904;2022-12-29T03:41:03;11.30;99.90
64143;DHT22;50437;51.970;5.904;2022-12-29T03:43:30;11.30;99.90
64143;DHT22;50437;51.970;5.904;2022-12-29T03:45:56;11.20;99.90
64143;DHT22;50437;51.970;5.904;2022-12-29T03:48:22;11.20;99.90
64143;DHT22;50437;51.970;5.904;2022-12-29T03:50:50;11.20;99.90
64143;DHT22;50437;51.970;5.904;2022-12-29T03:53:17;11.20;99.90
64143;DHT22;50437;51.970;5.904;2022-12-29T03:55:43;11.20;99.90
64143;DHT22;50437;51.970;5.904;2022-12-29T03:58:11;11.20;99.90
64143;DHT22;50437;51.970;5.904;2022-12-29T04:00:53;11.20;99.90
64143;DHT22;50437;51.970;5.904;2022-12-29T04:03:19;11.10;99.90
64143;DHT22;50437;51.970;5.904;2022-12-29T04:05:45;11.10;99.90
64143;DHT22;50437;51.970;5.904;2022-12-29T04:08:11;11.10;99.90
64143;DHT22;50437;51.970;5.904;2022-12-29T04:10:37;11.10;99.90
64143;DHT22;50437;51.970;5.904;2022-12-29T04:13:05;11.10;99.90
64143;DHT22;50437;51.970;5.904;2022-12-29T04:15:31;11.10;99.90
64143;DHT22;50437;51.970;5.904;2022-12-29T04:17:57;11.10;99.90
64143;DHT22;50437;51.970;5.904;2022-12-29T04:20:23;11.10;99.90
64143;DHT22;50437;51.970;5.904;2022-12-29T04:23:08;11.10;99.90
64143;DHT22;50437;51.970;5.904;2022-12-29T04:25:35;11.10;99.90
64143;DHT22;50437;51.970;5.904;2022-12-29T04:28:02;11.10;99.90
64143;DHT22;50437;51.970;5.904;2022-12-29T04:30:46;11.00;99.90
64143;DHT22;50437;51.970;5.904;2022-12-29T04:33:19;11.00;99.90
64143;DHT22;50437;51.970;5.904;2022-12-29T04:35:45;11.00;99.90
64143;DHT22;50437;51.970;5.904;2022-12-29T04:38:13;11.00;99.90
64143;DHT22;50437;51.970;5.904;2022-12-29T04:40:40;10.90;99.90
64143;DHT22;50437;51.970;5.904;2022-12-29T04:43:07;10.80;99.90
64143;DHT22;50437;51.970;5.904;2022-12-29T04:45:42;10.80;99.90
64143;DHT22;50437;51.970;5.904;2022-12-29T04:48:21;10.70;99.90
64143;DHT22;50437;51.970;5.904;2022-12-29T04:51:06;10.60;99.90
64143;DHT22;50437;51.970;5.904;2022-12-29T04:53:37;10.60;99.90
64143;DHT22;50437;51.970;5.904;2022-12-29T04:56:04;10.50;99.90
64143;DHT22;50437;51.970;5.904;2022-12-29T04:58:31;10.50;99.90
64143;DHT22;50437;51.970;5.904;2022-12-29T05:00:58;10.50;99.90
64143;DHT22;50437;51.970;5.904;2022-12-29T05:03:27;10.50;99.90
64143;DHT22;50437;51.970;5.904;2022-12-29T05:05:54;10.40;99.90
64143;DHT22;50437;51.970;5.904;2022-12-29T05:08:21;10.30;99.90
64143;DHT22;50437;51.970;5.904;2022-12-29T05:10:47;10.30;99.90
64143;DHT22;50437;51.970;5.904;2022-12-29T05:13:14;10.20;99.90
64143;DHT22;50437;51.970;5.904;2022-12-29T05:15:45;10.20;99.90
64143;DHT22;50437;51.970;5.904;2022-12-29T05:18:16;10.20;99.90
64143;DHT22;50437;51.970;5.904;2022-12-29T05:20:42;10.20;99.90
64143;DHT22;50437;51.970;5.904;2022-12-29T05:23:08;10.20;99.90
64143;DHT22;50437;51.970;5.904;2022-12-29T05:25:34;10.20;99.90
64143;DHT22;50437;51.970;5.904;2022-12-29T05:28:11;10.20;99.90
64143;DHT22;50437;51.970;5.904;2022-12-29T05:30:44;10.20;99.90
64143;DHT22;50437;51.970;5.904;2022-12-29T05:33:10;10.10;99.90
64143;DHT22;50437;51.970;5.904;2022-12-29T05:35:37;10.10;99.90
64143;DHT22;50437;51.970;5.904;2022-12-29T05:38:03;9.90;99.90
64143;DHT22;50437;51.970;5.904;2022-12-29T05:40:29;9.90;99.90
64143;DHT22;50437;51.970;5.904;2022-12-29T05:42:59;9.80;99.90
64143;DHT22;50437;51.970;5.904;2022-12-29T05:45:38;9.80;99.90
64143;DHT22;50437;51.970;5.904;2022-12-29T05:48:23;9.60;99.90
64143;DHT22;50437;51.970;5.904;2022-12-29T05:51:10;9.60;99.90
64143;DHT22;50437;51.970;5.904;2022-12-29T05:53:45;9.50;99.90
64143;DHT22;50437;51.970;5.904;2022-12-29T05:56:11;9.50;99.90
64143;DHT22;50437;51.970;5.904;2022-12-29T05:58:37;9.50;99.90
64143;DHT22;50437;51.970;5.904;2022-12-29T06:01:03;9.50;99.90
64143;DHT22;50437;51.970;5.904;2022-12-29T06:03:29;9.60;99.90
64143;DHT22;50437;51.970;5.904;2022-12-29T06:05:55;9.60;99.90
64143;DHT22;50437;51.970;5.904;2022-12-29T06:08:21;9.60;99.90
64143;DHT22;50437;51.970;5.904;2022-12-29T06:10:48;9.60;99.90
64143;DHT22;50437;51.970;5.904;2022-12-29T06:13:14;9.60;99.90
64143;DHT22;50437;51.970;5.904;2022-12-29T06:15:43;9.60;99.90
64143;DHT22;50437;51.970;5.904;2022-12-29T06:18:10;9.60;99.90
64143;DHT22;50437;51.970;5.904;2022-12-29T06:20:36;9.60;99.90
64143;DHT22;50437;51.970;5.904;2022-12-29T06:23:04;9.70;99.90
64143;DHT22;50437;51.970;5.904;2022-12-29T06:25:31;9.70;99.90
64143;DHT22;50437;51.970;5.904;2022-12-29T06:27:58;9.70;99.90
64143;DHT22;50437;51.970;5.904;2022-12-29T06:30:24;9.70;99.90
64143;DHT22;50437;51.970;5.904;2022-12-29T06:32:50;9.70;99.90
64143;DHT22;50437;51.970;5.904;2022-12-29T06:35:17;9.70;99.90
64143;DHT22;50437;51.970;5.904;2022-12-29T06:37:46;9.60;99.90
64143;DHT22;50437;51.970;5.904;2022-12-29T06:40:12;9.70;99.90
64143;DHT22;50437;51.970;5.904;2022-12-29T06:42:55;9.60;99.90
64143;DHT22;50437;51.970;5.904;2022-12-29T06:45:33;9.70;99.90
64143;DHT22;50437;51.970;5.904;2022-12-29T06:47:59;9.70;99.90
64143;DHT22;50437;51.970;5.904;2022-12-29T06:50:25;9.70;99.90
64143;DHT22;50437;51.970;5.904;2022-12-29T06:52:51;9.80;99.90
64143;DHT22;50437;51.970;5.904;2022-12-29T06:55:17;9.80;99.90
64143;DHT22;50437;51.970;5.904;2022-12-29T06:57:43;9.80;99.90
64143;DHT22;50437;51.970;5.904;2022-12-29T07:00:09;9.90;99.90
64143;DHT22;50437;51.970;5.904;2022-12-29T07:02:35;9.90;99.90
64143;DHT22;50437;51.970;5.904;2022-12-29T07:05:01;9.90;99.90
64143;DHT22;50437;51.970;5.904;2022-12-29T07:07:27;10.00;99.90
64143;DHT22;50437;51.970;5.904;2022-12-29T07:09:53;9.90;99.90
64143;DHT22;50437;51.970;5.904;2022-12-29T07:12:19;10.00;99.90
64143;DHT22;50437;51.970;5.904;2022-12-29T07:14:45;10.00;99.90
64143;DHT22;50437;51.970;5.904;2022-12-29T07:17:11;9.90;99.90
64143;DHT22;50437;51.970;5.904;2022-12-29T07:19:37;10.00;99.90
64143;DHT22;50437;51.970;5.904;2022-12-29T07:22:03;10.00;99.90
64143;DHT22;50437;51.970;5.904;2022-12-29T07:24:29;10.00;99.90
64143;DHT22;50437;51.970;5.904;2022-12-29T07:26:55;10.10;99.90
64143;DHT22;50437;51.970;5.904;2022-12-29T07:29:21;10.10;99.90
64143;DHT22;50437;51.970;5.904;2022-12-29T07:31:47;10.10;99.90
64143;DHT22;50437;51.970;5.904;2022-12-29T07:34:13;10.10;99.90
64143;DHT22;50437;51.970;5.904;2022-12-29T07:36:39;10.10;99.90
64143;DHT22;50437;51.970;5.904;2022-12-29T07:39:05;10.10;99.90
64143;DHT22;50437;51.970;5.904;2022-12-29T07:41:31;10.10;99.90
64143;DHT22;50437;51.970;5.904;2022-12-29T07:43:59;10.10;99.90
64143;DHT22;50437;51.970;5.904;2022-12-29T07:46:45;10.10;99.90
64143;DHT22;50437;51.970;5.904;2022-12-29T07:49:11;10.10;99.90
64143;DHT22;50437;51.970;5.904;2022-12-29T07:51:37;10.10;99.90
64143;DHT22;50437;51.970;5.904;2022-12-29T07:54:03;10.10;99.90
64143;DHT22;50437;51.970;5.904;2022-12-29T07:56:29;10.10;99.90
64143;DHT22;50437;51.970;5.904;2022-12-29T07:58:54;10.20;99.90
64143;DHT22;50437;51.970;5.904;2022-12-29T08:01:20;10.20;99.90
64143;DHT22;50437;51.970;5.904;2022-12-29T08:03:49;10.20;99.90
64143;DHT22;50437;51.970;5.904;2022-12-29T08:06:14;10.20;99.90
64143;DHT22;50437;51.970;5.904;2022-12-29T08:08:40;10.20;99.90
64143;DHT22;50437;51.970;5.904;2022-12-29T08:11:06;10.20;99.90
64143;DHT22;50437;51.970;5.904;2022-12-29T08:13:33;10.10;99.90
64143;DHT22;50437;51.970;5.904;2022-12-29T08:15:59;10.00;99.90
64143;DHT22;50437;51.970;5.904;2022-12-29T08:18:25;10.00;99.90
64143;DHT22;50437;51.970;5.904;2022-12-29T08:20:51;10.00;99.90
64143;DHT22;50437;51.970;5.904;2022-12-29T08:23:17;10.00;99.90
64143;DHT22;50437;51.970;5.904;2022-12-29T08:25:43;10.00;99.90
64143;DHT22;50437;51.970;5.904;2022-12-29T08:28:09;10.00;99.90
64143;DHT22;50437;51.970;5.904;2022-12-29T08:30:35;10.00;99.90
64143;DHT22;50437;51.970;5.904;2022-12-29T08:33:01;10.10;99.90
64143;DHT22;50437;51.970;5.904;2022-12-29T08:35:27;10.10;99.90
64143;DHT22;50437;51.970;5.904;2022-12-29T08:37:53;10.10;99.90
64143;DHT22;50437;51.970;5.904;2022-12-29T08:40:19;10.20;99.90
64143;DHT22;50437;51.970;5.904;2022-12-29T08:42:45;10.20;99.90
64143;DHT22;50437;51.970;5.904;2022-12-29T08:45:11;10.20;99.90
64143;DHT22;50437;51.970;5.904;2022-12-29T08:47:37;10.30;99.90
64143;DHT22;50437;51.970;5.904;2022-12-29T08:50:03;10.30;99.90
64143;DHT22;50437;51.970;5.904;2022-12-29T08:52:31;10.30;99.90
64143;DHT22;50437;51.970;5.904;2022-12-29T08:54:56;10.30;99.90
64143;DHT22;50437;51.970;5.904;2022-12-29T08:57:22;10.30;99.90
64143;DHT22;50437;51.970;5.904;2022-12-29T09:00:09;10.30;99.90
64143;DHT22;50437;51.970;5.904;2022-12-29T09:02:35;10.40;99.90
64143;DHT22;50437;51.970;5.904;2022-12-29T09:05:01;10.40;99.90
64143;DHT22;50437;51.970;5.904;2022-12-29T09:07:27;10.40;99.90
64143;DHT22;50437;51.970;5.904;2022-12-29T09:09:53;10.30;99.90
64143;DHT22;50437;51.970;5.904;2022-12-29T09:12:19;10.40;99.90
64143;DHT22;50437;51.970;5.904;2022-12-29T09:14:45;10.40;99.90
64143;DHT22;50437;51.970;5.904;2022-12-29T09:17:12;10.40;99.90
64143;DHT22;50437;51.970;5.904;2022-12-29T09:19:56;10.30;99.90
64143;DHT22;50437;51.970;5.904;2022-12-29T09:22:22;10.20;99.90
64143;DHT22;50437;51.970;5.904;2022-12-29T09:24:48;10.10;99.90
64143;DHT22;50437;51.970;5.904;2022-12-29T09:27:14;10.00;99.90
64143;DHT22;50437;51.970;5.904;2022-12-29T09:29:40;9.90;99.90
64143;DHT22;50437;51.970;5.904;2022-12-29T09:32:06;9.90;99.90
64143;DHT22;50437;51.970;5.904;2022-12-29T09:34:33;9.90;99.90
64143;DHT22;50437;51.970;5.904;2022-12-29T09:36:59;10.00;99.90
64143;DHT22;50437;51.970;5.904;2022-12-29T09:39:25;10.00;99.90
64143;DHT22;50437;51.970;5.904;2022-12-29T09:41:52;10.00;99.90
64143;DHT22;50437;51.970;5.904;2022-12-29T09:44:30;10.10;99.90
64143;DHT22;50437;51.970;5.904;2022-12-29T09:46:57;10.10;99.90
64143;DHT22;50437;51.970;5.904;2022-12-29T09:52:11;10.10;99.90
64143;DHT22;50437;51.970;5.904;2022-12-29T09:54:41;10.20;99.90
64143;DHT22;50437;51.970;5.904;2022-12-29T09:57:32;10.20;99.90
64143;DHT22;50437;51.970;5.904;2022-12-29T10:00:06;10.20;99.90
64143;DHT22;50437;51.970;5.904;2022-12-29T10:02:39;10.10;99.90
64143;DHT22;50437;51.970;5.904;2022-12-29T10:05:17;10.10;99.90
64143;DHT22;50437;51.970;5.904;2022-12-29T10:07:48;10.00;99.90
64143;DHT22;50437;51.970;5.904;2022-12-29T10:10:19;10.00;99.90
64143;DHT22;50437;51.970;5.904;2022-12-29T10:15:47;9.80;99.90
64143;DHT22;50437;51.970;5.904;2022-12-29T10:23:32;9.70;99.90
64143;DHT22;50437;51.970;5.904;2022-12-29T10:25:59;9.60;99.90
64143;DHT22;50437;51.970;5.904;2022-12-29T10:31:03;9.60;99.90
64143;DHT22;50437;51.970;5.904;2022-12-29T10:33:35;9.50;99.90
64143;DHT22;50437;51.970;5.904;2022-12-29T10:36:04;9.50;99.90
64143;DHT22;50437;51.970;5.904;2022-12-29T10:38:35;9.60;99.90
64143;DHT22;50437;51.970;5.904;2022-12-29T10:43:44;9.60;99.90
64143;DHT22;50437;51.970;5.904;2022-12-29T10:46:12;9.50;99.90
64143;DHT22;50437;51.970;5.904;2022-12-29T10:48:39;9.60;99.90
64143;DHT22;50437;51.970;5.904;2022-12-29T10:51:05;9.60;99.90
64143;DHT22;50437;51.970;5.904;2022-12-29T10:53:35;9.70;99.90
64143;DHT22;50437;51.970;5.904;2022-12-29T10:56:03;9.70;99.90
64143;DHT22;50437;51.970;5.904;2022-12-29T10:58:31;9.60;99.90
64143;DHT22;50437;51.970;5.904;2022-12-29T11:00:58;9.60;99.90
64143;DHT22;50437;51.970;5.904;2022-12-29T11:06:10;9.70;99.90
64143;DHT22;50437;51.970;5.904;2022-12-29T11:08:39;9.70;99.90
64143;DHT22;50437;51.970;5.904;2022-12-29T11:11:07;9.70;99.90
64143;DHT22;50437;51.970;5.904;2022-12-29T11:13:34;9.70;99.90
64143;DHT22;50437;51.970;5.904;2022-12-29T11:16:00;9.80;99.90
64143;DHT22;50437;51.970;5.904;2022-12-29T11:18:32;9.70;99.90
64143;DHT22;50437;51.970;5.904;2022-12-29T11:20:59;9.70;99.90
64143;DHT22;50437;51.970;5.904;2022-12-29T11:28:32;9.90;99.90
64143;DHT22;50437;51.970;5.904;2022-12-29T11:31:00;10.00;99.90
64143;DHT22;50437;51.970;5.904;2022-12-29T11:33:27;10.10;99.90
64143;DHT22;50437;51.970;5.904;2022-12-29T11:35:57;10.10;99.90
64143;DHT22;50437;51.970;5.904;2022-12-29T11:38:25;9.90;99.90
64143;DHT22;50437;51.970;5.904;2022-12-29T11:40:53;9.90;99.90
64143;DHT22;50437;51.970;5.904;2022-12-29T11:43:30;10.00;99.90
64143;DHT22;50437;51.970;5.904;2022-12-29T11:45:59;10.10;99.90
64143;DHT22;50437;51.970;5.904;2022-12-29T11:48:25;10.10;99.90
64143;DHT22;50437;51.970;5.904;2022-12-29T11:50:55;10.10;99.90
64143;DHT22;50437;51.970;5.904;2022-12-29T11:53:23;10.10;99.90
64143;DHT22;50437;51.970;5.904;2022-12-29T11:56:00;10.20;99.90
64143;DHT22;50437;51.970;5.904;2022-12-29T11:58:34;10.20;99.90
64143;DHT22;50437;51.970;5.904;2022-12-29T12:03:29;10.20;99.90
64143;DHT22;50437;51.970;5.904;2022-12-29T12:05:57;10.10;99.90
64143;DHT22;50437;51.970;5.904;2022-12-29T12:08:41;10.20;99.90
64143;DHT22;50437;51.970;5.904;2022-12-29T12:11:17;10.10;99.90
64143;DHT22;50437;51.970;5.904;2022-12-29T12:16:24;10.10;99.90
64143;DHT22;50437;51.970;5.904;2022-12-29T12:18:56;10.00;99.90
64143;DHT22;50437;51.970;5.904;2022-12-29T12:26:41;10.20;99.90
64143;DHT22;50437;51.970;5.904;2022-12-29T12:29:10;10.30;99.90
64143;DHT22;50437;51.970;5.904;2022-12-29T12:36:57;10.40;99.90
64143;DHT22;50437;51.970;5.904;2022-12-29T12:42:05;10.40;99.90
64143;DHT22;50437;51.970;5.904;2022-12-29T12:52:49;10.90;99.90
64143;DHT22;50437;51.970;5.904;2022-12-29T13:00:24;10.60;99.90
64143;DHT22;50437;51.970;5.904;2022-12-29T13:05:30;10.60;99.90
64143;DHT22;50437;51.970;5.904;2022-12-29T13:08:16;10.50;99.90
64143;DHT22;50437;51.970;5.904;2022-12-29T13:16:05;10.40;99.90
64143;DHT22;50437;51.970;5.904;2022-12-29T13:18:40;10.40;99.90
64143;DHT22;50437;51.970;5.904;2022-12-29T13:21:12;10.40;99.90
64143;DHT22;50437;51.970;5.904;2022-12-29T13:23:47;10.40;99.90
64143;DHT22;50437;51.970;5.904;2022-12-29T13:28:59;10.40;99.90
64143;DHT22;50437;51.970;5.904;2022-12-29T13:36:52;10.10;99.90
64143;DHT22;50437;51.970;5.904;2022-12-29T13:39:21;10.10;99.90
64143;DHT22;50437;51.970;5.904;2022-12-29T13:41:49;10.10;99.90
64143;DHT22;50437;51.970;5.904;2022-12-29T13:44:35;10.10;99.90
64143;DHT22;50437;51.970;5.904;2022-12-29T13:47:06;10.20;99.90
64143;DHT22;50437;51.970;5.904;2022-12-29T13:49:39;10.20;99.90
64143;DHT22;50437;51.970;5.904;2022-12-29T14:00:04;10.20;99.90
64143;DHT22;50437;51.970;5.904;2022-12-29T14:02:46;10.20;99.90
64143;DHT22;50437;51.970;5.904;2022-12-29T14:07:45;10.20;99.90
64143;DHT22;50437;51.970;5.904;2022-12-29T14:10:28;10.10;99.90
64143;DHT22;50437;51.970;5.904;2022-12-29T14:13:11;10.10;99.90
64143;DHT22;50437;51.970;5.904;2022-12-29T14:15:39;10.00;99.90
64143;DHT22;50437;51.970;5.904;2022-12-29T14:20:45;9.90;99.90
64143;DHT22;50437;51.970;5.904;2022-12-29T14:25:58;9.80;99.90
64143;DHT22;50437;51.970;5.904;2022-12-29T14:28:25;9.80;99.90
64143;DHT22;50437;51.970;5.904;2022-12-29T14:30:52;9.80;99.90
64143;DHT22;50437;51.970;5.904;2022-12-29T14:33:19;9.70;99.90
64143;DHT22;50437;51.970;5.904;2022-12-29T14:35:45;9.70;99.90
64143;DHT22;50437;51.970;5.904;2022-12-29T14:38:19;9.60;99.90
64143;DHT22;50437;51.970;5.904;2022-12-29T14:40:46;9.60;99.90
64143;DHT22;50437;51.970;5.904;2022-12-29T14:43:47;9.60;99.90
64143;DHT22;50437;51.970;5.904;2022-12-29T14:46:05;9.60;99.90
64143;DHT22;50437;51.970;5.904;2022-12-29T14:48:34;9.50;99.90
64143;DHT22;50437;51.970;5.904;2022-12-29T14:51:01;9.40;99.90
64143;DHT22;50437;51.970;5.904;2022-12-29T14:53:40;9.40;99.90
64143;DHT22;50437;51.970;5.904;2022-12-29T14:56:08;9.20;99.90
64143;DHT22;50437;51.970;5.904;2022-12-29T14:58:46;9.20;99.90
64143;DHT22;50437;51.970;5.904;2022-12-29T15:01:24;9.20;99.90
64143;DHT22;50437;51.970;5.904;2022-12-29T15:03:51;9.20;99.90
64143;DHT22;50437;51.970;5.904;2022-12-29T15:06:19;9.30;99.90
64143;DHT22;50437;51.970;5.904;2022-12-29T15:11:15;9.20;99.90
64143;DHT22;50437;51.970;5.904;2022-12-29T15:13:43;9.20;99.90
64143;DHT22;50437;51.970;5.904;2022-12-29T15:18:47;9.10;99.90
64143;DHT22;50437;51.970;5.904;2022-12-29T15:21:14;9.10;99.90
64143;DHT22;50437;51.970;5.904;2022-12-29T15:23:41;9.10;99.90
64143;DHT22;50437;51.970;5.904;2022-12-29T15:26:08;9.00;99.90
64143;DHT22;50437;51.970;5.904;2022-12-29T15:31:04;8.90;99.90
64143;DHT22;50437;51.970;5.904;2022-12-29T15:33:31;9.00;99.90
64143;DHT22;50437;51.970;5.904;2022-12-29T15:36:01;9.00;99.90
64143;DHT22;50437;51.970;5.904;2022-12-29T15:38:28;9.00;99.90
64143;DHT22;50437;51.970;5.904;2022-12-29T15:40:56;9.00;99.90
64143;DHT22;50437;51.970;5.904;2022-12-29T15:43:30;9.10;99.90
64143;DHT22;50437;51.970;5.904;2022-12-29T15:45:58;9.10;99.90
64143;DHT22;50437;51.970;5.904;2022-12-29T15:48:26;9.10;99.90
64143;DHT22;50437;51.970;5.904;2022-12-29T15:50:52;9.10;99.90
64143;DHT22;50437;51.970;5.904;2022-12-29T15:53:22;9.10;99.90
64143;DHT22;50437;51.970;5.904;2022-12-29T15:55:58;9.10;99.90
64143;DHT22;50437;51.970;5.904;2022-12-29T15:58:28;9.10;99.90
64143;DHT22;50437;51.970;5.904;2022-12-29T16:00:58;9.00;99.90
64143;DHT22;50437;51.970;5.904;2022-12-29T16:03:25;9.00;99.90
64143;DHT22;50437;51.970;5.904;2022-12-29T16:05:53;9.00;99.90
64143;DHT22;50437;51.970;5.904;2022-12-29T16:10:48;9.00;99.90
64143;DHT22;50437;51.970;5.904;2022-12-29T16:13:20;9.00;99.90
64143;DHT22;50437;51.970;5.904;2022-12-29T16:15:51;8.90;99.90
64143;DHT22;50437;51.970;5.904;2022-12-29T16:18:27;9.00;99.90
64143;DHT22;50437;51.970;5.904;2022-12-29T16:20:54;9.00;99.90
64143;DHT22;50437;51.970;5.904;2022-12-29T16:23:25;9.00;99.90
64143;DHT22;50437;51.970;5.904;2022-12-29T16:25:52;9.00;99.90
64143;DHT22;50437;51.970;5.904;2022-12-29T16:28:21;9.00;99.90
64143;DHT22;50437;51.970;5.904;2022-12-29T16:31:36;9.10;99.90
64143;DHT22;50437;51.970;5.904;2022-12-29T16:36:20;9.10;99.90
64143;DHT22;50437;51.970;5.904;2022-12-29T16:38:47;9.00;99.90
64143;DHT22;50437;51.970;5.904;2022-12-29T16:41:25;9.00;99.90
64143;DHT22;50437;51.970;5.904;2022-12-29T16:46:42;8.90;99.90
64143;DHT22;50437;51.970;5.904;2022-12-29T16:49:14;8.90;99.90
64143;DHT22;50437;51.970;5.904;2022-12-29T16:51:42;8.80;99.90
64143;DHT22;50437;51.970;5.904;2022-12-29T16:54:19;8.80;99.90
64143;DHT22;50437;51.970;5.904;2022-12-29T16:56:46;8.80;99.90
64143;DHT22;50437;51.970;5.904;2022-12-29T16:59:26;8.70;99.90
64143;DHT22;50437;51.970;5.904;2022-12-29T17:01:55;8.70;99.90
64143;DHT22;50437;51.970;5.904;2022-12-29T17:04:21;8.70;99.90
64143;DHT22;50437;51.970;5.904;2022-12-29T17:06:47;8.60;99.90
64143;DHT22;50437;51.970;5.904;2022-12-29T17:09:23;8.60;99.90
64143;DHT22;50437;51.970;5.904;2022-12-29T17:11:50;8.60;99.90
64143;DHT22;50437;51.970;5.904;2022-12-29T17:16:51;8.60;99.90
64143;DHT22;50437;51.970;5.904;2022-12-29T17:19:17;8.60;99.90
64143;DHT22;50437;51.970;5.904;2022-12-29T17:21:45;8.50;99.90
64143;DHT22;50437;51.970;5.904;2022-12-29T17:24:23;8.50;99.90
64143;DHT22;50437;51.970;5.904;2022-12-29T17:26:51;8.50;99.90
64143;DHT22;50437;51.970;5.904;2022-12-29T17:29:18;8.50;99.90
64143;DHT22;50437;51.970;5.904;2022-12-29T17:31:45;8.40;99.90
64143;DHT22;50437;51.970;5.904;2022-12-29T17:34:11;8.40;99.90
64143;DHT22;50437;51.970;5.904;2022-12-29T17:36:38;8.40;99.90
64143;DHT22;50437;51.970;5.904;2022-12-29T17:39:04;8.30;99.90
64143;DHT22;50437;51.970;5.904;2022-12-29T17:41:31;8.30;99.90
64143;DHT22;50437;51.970;5.904;2022-12-29T17:43:58;8.30;99.90
64143;DHT22;50437;51.970;5.904;2022-12-29T17:46:24;8.30;99.90
64143;DHT22;50437;51.970;5.904;2022-12-29T17:48:53;8.30;99.90
64143;DHT22;50437;51.970;5.904;2022-12-29T17:51:20;8.20;99.90
64143;DHT22;50437;51.970;5.904;2022-12-29T17:53:46;8.30;99.90
64143;DHT22;50437;51.970;5.904;2022-12-29T17:56:12;8.20;99.90
64143;DHT22;50437;51.970;5.904;2022-12-29T17:58:38;8.20;99.90
64143;DHT22;50437;51.970;5.904;2022-12-29T18:01:08;8.20;99.90
64143;DHT22;50437;51.970;5.904;2022-12-29T18:03:35;8.10;99.90
64143;DHT22;50437;51.970;5.904;2022-12-29T18:06:02;8.10;99.90
64143;DHT22;50437;51.970;5.904;2022-12-29T18:08:31;8.10;99.90
64143;DHT22;50437;51.970;5.904;2022-12-29T18:10:57;8.00;99.90